Time;durP1;ratioP1;P1;durP2;ratioP2;P2;SDS_P1;SDS_P2;PMS_P1;PMS_P2;Temp;Humidity;BMP_temperature;BMP_pressure;BME280_temperature;BME280_humidity;BME280_pressure;Samples;Min_cycle;Max_cycle;Signal;HPM_P1;HPM_P2
2023/11/13 00:01:52;;;;;;;2.37;0.80;;;7.20;99.90;;;;;;5096208;28;20440;-53
2023/11/13 00:04:20;;;;;;;1.60;1.00;;;7.20;99.90;;;;;;5095431;28;20872;-54
2023/11/13 00:06:47;;;;;;;1.10;0.80;;;7.20;99.90;;;;;;5095767;28;20479;-55
2023/11/13 00:09:14;;;;;;;1.50;0.80;;;7.30;99.90;;;;;;5095781;28;20479;-54
2023/11/13 00:11:42;;;;;;;1.55;0.90;;;7.40;99.90;;;;;;5095088;28;20421;-55
2023/11/13 00:14:09;;;;;;;2.20;1.10;;;7.50;99.90;;;;;;5095668;28;20420;-54
2023/11/13 00:16:36;;;;;;;1.80;0.90;;;7.50;99.90;;;;;;5095662;28;20771;-49
2023/11/13 00:19:04;;;;;;;1.50;0.90;;;7.50;99.90;;;;;;5095478;28;20414;-50
2023/11/13 00:21:31;;;;;;;1.70;0.85;;;7.40;99.90;;;;;;5095557;28;20414;-52
2023/11/13 00:23:57;;;;;;;2.22;0.90;;;7.40;99.90;;;;;;5094265;28;20487;-53
2023/11/13 00:26:25;;;;;;;1.55;1.00;;;7.30;99.90;;;;;;5095543;28;20445;-49
2023/11/13 00:28:53;;;;;;;1.33;0.90;;;7.30;99.90;;;;;;5094992;28;20511;-51
2023/11/13 00:31:21;;;;;;;1.80;1.00;;;7.30;99.90;;;;;;5093050;28;20906;-50
2023/11/13 00:33:48;;;;;;;1.60;1.08;;;7.30;99.90;;;;;;5092804;28;20478;-52
2023/11/13 00:36:15;;;;;;;1.95;0.80;;;7.30;99.90;;;;;;5093627;28;20486;-51
2023/11/13 00:38:42;;;;;;;1.50;0.80;;;7.40;99.90;;;;;;5093789;28;20494;-51
2023/11/13 00:41:11;;;;;;;1.30;0.70;;;7.40;99.90;;;;;;5093916;28;20429;-48
2023/11/13 00:43:38;;;;;;;1.20;0.70;;;7.50;99.90;;;;;;5093371;28;20436;-56
2023/11/13 00:46:07;;;;;;;1.30;0.70;;;7.50;99.90;;;;;;5094031;28;20661;-49
2023/11/13 00:48:37;;;;;;;1.70;1.00;;;7.60;99.90;;;;;;5095094;28;20908;-55
2023/11/13 00:51:05;;;;;;;2.30;0.70;;;7.60;99.90;;;;;;5094444;28;20429;-53
2023/11/13 00:53:36;;;;;;;3.40;0.95;;;7.60;99.90;;;;;;5094748;28;20442;-54
2023/11/13 00:56:05;;;;;;;1.48;0.80;;;7.70;99.90;;;;;;5095303;28;20521;-55
2023/11/13 00:58:34;;;;;;;1.60;0.90;;;7.70;99.90;;;;;;5095123;28;20521;-53
2023/11/13 01:01:01;;;;;;;1.40;0.90;;;7.60;99.90;;;;;;5094907;28;20417;-51
2023/11/13 01:03:29;;;;;;;1.80;1.00;;;7.50;99.90;;;;;;5093701;28;20413;-51
2023/11/13 01:05:56;;;;;;;1.80;1.00;;;7.40;99.90;;;;;;5093842;28;20445;-52
2023/11/13 01:08:23;;;;;;;1.30;0.90;;;7.40;99.90;;;;;;5093291;28;20429;-54
2023/11/13 01:10:50;;;;;;;1.40;0.80;;;7.50;99.90;;;;;;5093541;28;20421;-50
2023/11/13 01:13:18;;;;;;;1.10;0.60;;;7.60;99.90;;;;;;5093962;28;20422;-55
2023/11/13 01:15:45;;;;;;;2.00;0.80;;;7.70;99.90;;;;;;5094231;28;20801;-52
2023/11/13 01:18:13;;;;;;;1.65;0.80;;;7.70;99.90;;;;;;5094858;28;20425;-52
2023/11/13 01:20:42;;;;;;;2.13;0.90;;;7.80;99.90;;;;;;5094744;28;20836;-54
2023/11/13 01:23:09;;;;;;;1.80;0.90;;;7.80;99.90;;;;;;5093961;28;20422;-48
2023/11/13 01:25:36;;;;;;;1.80;1.10;;;7.80;99.90;;;;;;5094144;28;20892;-52
2023/11/13 01:28:02;;;;;;;2.17;1.13;;;7.80;99.90;;;;;;5094295;28;20775;-52
2023/11/13 01:30:30;;;;;;;2.20;1.00;;;7.70;99.90;;;;;;5094615;28;20842;-51
2023/11/13 01:32:57;;;;;;;2.20;1.23;;;7.50;99.90;;;;;;5094050;28;20425;-51
2023/11/13 01:35:25;;;;;;;1.70;1.00;;;7.40;99.90;;;;;;5094944;28;20422;-52
2023/11/13 01:37:53;;;;;;;2.45;1.20;;;7.50;99.90;;;;;;5093345;28;20520;-54
2023/11/13 01:40:20;;;;;;;1.60;1.10;;;7.50;99.90;;;;;;5092640;28;20425;-53
2023/11/13 01:42:48;;;;;;;1.80;1.10;;;7.50;99.90;;;;;;5093236;28;20444;-51
2023/11/13 01:45:16;;;;;;;2.80;1.20;;;7.50;99.90;;;;;;5093401;28;20469;-53
2023/11/13 01:47:45;;;;;;;2.38;1.10;;;7.50;99.90;;;;;;5093890;28;20422;-51
2023/11/13 01:50:13;;;;;;;2.20;1.10;;;7.60;99.90;;;;;;5097707;28;20877;-48
2023/11/13 01:52:41;;;;;;;2.10;1.10;;;7.60;99.90;;;;;;5097900;28;20475;-53
2023/11/13 01:55:11;;;;;;;1.48;0.90;;;7.50;99.90;;;;;;5097317;28;20421;-51
2023/11/13 01:57:39;;;;;;;1.97;0.90;;;7.60;99.90;;;;;;5095756;28;20471;-50
2023/11/13 02:00:07;;;;;;;1.40;0.80;;;7.70;99.90;;;;;;5097609;28;20430;-52
2023/11/13 02:02:35;;;;;;;1.60;0.80;;;7.80;99.90;;;;;;5098227;28;20424;-50
2023/11/13 02:05:02;;;;;;;1.13;0.80;;;7.80;99.90;;;;;;5097846;28;20434;-51
2023/11/13 02:07:29;;;;;;;2.23;0.80;;;7.80;99.90;;;;;;5096344;28;20517;-53
2023/11/13 02:09:56;;;;;;;1.57;0.80;;;7.80;99.90;;;;;;5096441;28;20490;-54
2023/11/13 02:12:27;;;;;;;1.53;0.80;;;7.90;99.90;;;;;;5096550;28;20547;-54
2023/11/13 02:14:54;;;;;;;1.30;0.75;;;7.90;99.90;;;;;;5097546;28;20607;-50
2023/11/13 02:17:21;;;;;;;1.50;0.73;;;7.90;99.90;;;;;;5097128;28;20433;-55
2023/11/13 02:19:48;;;;;;;2.53;0.80;;;7.90;99.90;;;;;;5094982;28;20471;-51
2023/11/13 02:22:15;;;;;;;1.50;0.80;;;7.80;99.90;;;;;;5095275;28;20422;-56
2023/11/13 02:24:43;;;;;;;1.00;0.70;;;7.90;99.90;;;;;;5094703;28;20910;-53
2023/11/13 02:27:12;;;;;;;1.40;0.80;;;8.00;99.90;;;;;;5094556;28;20437;-53
2023/11/13 02:29:40;;;;;;;1.83;0.68;;;8.00;99.90;;;;;;5096319;28;20425;-54
2023/11/13 02:32:07;;;;;;;1.20;0.60;;;8.10;99.90;;;;;;5096012;28;20793;-55
2023/11/13 02:34:34;;;;;;;1.10;0.60;;;8.20;99.90;;;;;;5095802;28;20562;-54
2023/11/13 02:37:02;;;;;;;1.30;0.70;;;8.30;99.90;;;;;;5096016;28;20418;-51
2023/11/13 02:39:29;;;;;;;1.80;0.70;;;8.40;99.90;;;;;;5096174;28;20425;-53
2023/11/13 02:41:57;;;;;;;1.20;0.60;;;8.40;99.90;;;;;;5096237;28;20417;-51
2023/11/13 02:44:24;;;;;;;1.08;0.60;;;8.40;99.90;;;;;;5095836;28;20426;-53
2023/11/13 02:46:51;;;;;;;1.50;0.63;;;8.40;99.90;;;;;;5095927;28;20430;-52
2023/11/13 02:49:18;;;;;;;1.10;0.57;;;8.40;99.90;;;;;;5096682;28;20426;-52
2023/11/13 02:51:45;;;;;;;1.00;0.50;;;8.50;99.90;;;;;;5097185;28;20425;-51
2023/11/13 02:54:12;;;;;;;1.10;0.60;;;8.60;99.90;;;;;;5097412;28;20430;-54
2023/11/13 02:56:40;;;;;;;1.23;0.60;;;8.60;99.90;;;;;;5097078;28;20426;-55
2023/11/13 02:59:08;;;;;;;1.33;0.70;;;8.50;99.90;;;;;;5096223;28;20517;-50
2023/11/13 03:01:35;;;;;;;1.30;0.60;;;8.60;99.90;;;;;;5096770;28;20429;-49
2023/11/13 03:04:03;;;;;;;1.52;0.90;;;8.60;99.90;;;;;;5097088;28;20475;-51
2023/11/13 03:06:30;;;;;;;1.08;0.70;;;8.60;99.90;;;;;;5096328;28;20494;-54
2023/11/13 03:08:57;;;;;;;2.30;0.75;;;8.60;99.90;;;;;;5096920;28;20422;-52
2023/11/13 03:11:24;;;;;;;2.10;0.80;;;8.50;99.90;;;;;;5096565;28;20426;-49
2023/11/13 03:13:51;;;;;;;1.70;0.70;;;8.60;99.90;;;;;;5096676;28;20720;-50
2023/11/13 03:16:20;;;;;;;2.78;0.90;;;8.60;99.90;;;;;;5096640;28;20418;-52
2023/11/13 03:18:47;;;;;;;2.80;0.80;;;8.60;99.90;;;;;;5096472;28;20413;-55
2023/11/13 03:21:14;;;;;;;2.00;0.80;;;8.70;99.90;;;;;;5096441;28;20425;-57
2023/11/13 03:23:41;;;;;;;1.90;0.80;;;8.70;99.90;;;;;;5096927;28;20721;-54
2023/11/13 03:26:08;;;;;;;1.30;0.80;;;8.70;99.90;;;;;;5095893;28;20491;-53
2023/11/13 03:28:35;;;;;;;1.40;0.80;;;8.70;99.90;;;;;;5095908;28;20506;-56
2023/11/13 03:31:02;;;;;;;2.20;0.75;;;8.70;99.90;;;;;;5096349;28;20418;-53
2023/11/13 03:33:30;;;;;;;1.60;0.70;;;8.70;99.90;;;;;;5096224;28;20427;-55
2023/11/13 03:35:57;;;;;;;1.10;0.63;;;8.70;99.90;;;;;;5095429;28;20418;-52
2023/11/13 03:38:25;;;;;;;1.70;0.50;;;8.80;99.90;;;;;;5096231;28;20503;-55
2023/11/13 03:40:52;;;;;;;0.90;0.50;;;8.80;99.90;;;;;;5095599;28;20469;-55
2023/11/13 03:43:21;;;;;;;1.10;0.40;;;9.00;99.90;;;;;;5095633;28;20520;-53
2023/11/13 03:45:48;;;;;;;1.10;0.40;;;9.10;99.90;;;;;;5095892;28;20426;-53
2023/11/13 03:48:15;;;;;;;1.30;0.30;;;9.30;99.90;;;;;;5095803;28;20852;-52
2023/11/13 03:50:43;;;;;;;0.52;0.30;;;9.40;99.90;;;;;;5096214;28;20844;-53
2023/11/13 03:53:10;;;;;;;0.70;0.20;;;9.50;99.90;;;;;;5096046;28;20482;-53
2023/11/13 03:55:37;;;;;;;0.50;0.30;;;9.60;99.90;;;;;;5095650;28;20425;-55
2023/11/13 03:58:05;;;;;;;0.80;0.20;;;9.60;99.90;;;;;;5094533;28;20467;-54
2023/11/13 04:00:34;;;;;;;0.50;0.30;;;9.70;99.90;;;;;;5095982;28;20446;-51
2023/11/13 04:03:01;;;;;;;0.70;0.20;;;9.90;99.90;;;;;;5095917;28;20429;-53
2023/11/13 04:05:29;;;;;;;0.70;0.20;;;10.10;99.90;;;;;;5093914;28;20620;-55
2023/11/13 04:07:58;;;;;;;0.50;0.20;;;10.10;99.90;;;;;;5094491;28;20413;-54
2023/11/13 04:10:28;;;;;;;0.40;0.20;;;10.20;99.90;;;;;;5094302;28;20522;-57
2023/11/13 04:12:55;;;;;;;0.40;0.20;;;10.20;99.90;;;;;;5094234;28;20475;-57
2023/11/13 04:15:22;;;;;;;0.40;0.20;;;10.20;99.90;;;;;;5094783;28;20445;-53
2023/11/13 04:17:49;;;;;;;0.40;0.20;;;10.20;99.90;;;;;;5095207;28;20429;-54
2023/11/13 04:20:18;;;;;;;0.50;0.20;;;10.20;99.90;;;;;;5095169;28;20484;-55
2023/11/13 04:22:46;;;;;;;0.40;0.20;;;10.20;99.90;;;;;;5093947;28;20794;-52
2023/11/13 04:25:15;;;;;;;0.40;0.20;;;10.20;99.90;;;;;;5093304;28;20434;-57
2023/11/13 04:27:42;;;;;;;0.80;0.20;;;10.20;99.90;;;;;;5095060;28;20422;-52
2023/11/13 04:30:10;;;;;;;0.50;0.20;;;10.20;99.90;;;;;;5094298;28;20844;-55
2023/11/13 04:32:37;;;;;;;1.10;0.20;;;10.30;99.90;;;;;;5095381;28;20919;-51
2023/11/13 04:35:05;;;;;;;0.40;0.20;;;10.20;99.90;;;;;;5094490;28;20413;-56
2023/11/13 04:37:32;;;;;;;0.85;0.20;;;10.30;99.90;;;;;;5095357;28;20516;-57
2023/11/13 04:39:59;;;;;;;0.40;0.20;;;10.30;99.90;;;;;;5095048;28;20485;-57
2023/11/13 04:42:27;;;;;;;1.50;0.30;;;10.40;99.90;;;;;;5093462;28;20490;-53
2023/11/13 04:44:54;;;;;;;1.20;0.20;;;10.40;99.90;;;;;;5092605;28;20479;-57
2023/11/13 04:47:21;;;;;;;2.15;0.30;;;10.40;99.90;;;;;;5091283;28;20429;-57
2023/11/13 04:49:49;;;;;;;0.60;0.20;;;10.40;99.90;;;;;;5091819;28;20859;-56
2023/11/13 04:52:16;;;;;;;0.80;0.20;;;10.40;99.90;;;;;;5091959;28;20418;-54
2023/11/13 04:54:43;;;;;;;1.10;0.30;;;10.40;99.90;;;;;;5091401;28;20418;-56
2023/11/13 04:57:10;;;;;;;1.10;0.20;;;10.40;99.90;;;;;;5091806;28;20425;-55
2023/11/13 04:59:39;;;;;;;0.60;0.20;;;10.40;99.90;;;;;;5092354;28;20425;-56
2023/11/13 05:02:07;;;;;;;2.03;0.20;;;10.40;99.90;;;;;;5093161;28;20426;-56
2023/11/13 05:04:34;;;;;;;1.00;0.20;;;10.40;99.90;;;;;;5093682;28;20528;-56
2023/11/13 05:07:01;;;;;;;1.20;0.30;;;10.40;99.90;;;;;;5093642;28;20429;-55
2023/11/13 05:09:28;;;;;;;0.60;0.20;;;10.40;99.90;;;;;;5094350;28;20717;-56
2023/11/13 05:11:56;;;;;;;0.50;0.20;;;10.50;99.90;;;;;;5094608;28;20479;-52
2023/11/13 05:14:23;;;;;;;1.40;0.20;;;10.50;99.90;;;;;;5094878;28;20433;-53
2023/11/13 05:16:55;;;;;;;1.77;0.30;;;10.50;99.90;;;;;;5094614;28;20422;-50
2023/11/13 05:19:22;;;;;;;1.30;0.28;;;10.50;99.90;;;;;;5094498;28;20501;-50
2023/11/13 05:21:50;;;;;;;1.00;0.20;;;10.50;99.90;;;;;;5094582;28;20441;-53
2023/11/13 05:24:17;;;;;;;0.90;0.20;;;10.50;99.90;;;;;;5096943;28;20445;-56
2023/11/13 05:26:44;;;;;;;1.02;0.20;;;10.60;99.90;;;;;;5097936;28;20434;-56
2023/11/13 05:29:11;;;;;;;0.93;0.30;;;10.60;99.90;;;;;;5098358;28;20418;-53
2023/11/13 05:31:38;;;;;;;1.10;0.30;;;10.60;99.90;;;;;;5098135;28;20426;-56
2023/11/13 05:34:07;;;;;;;1.73;0.33;;;10.60;99.90;;;;;;5098016;28;20421;-55
2023/11/13 05:36:34;;;;;;;1.02;0.40;;;10.60;99.90;;;;;;5097777;28;20513;-56
2023/11/13 05:39:01;;;;;;;1.00;0.40;;;10.60;99.90;;;;;;5097040;28;20429;-56
2023/11/13 05:41:28;;;;;;;1.30;0.30;;;10.60;99.90;;;;;;5098156;28;20422;-54
2023/11/13 05:43:57;;;;;;;1.15;0.38;;;10.60;99.90;;;;;;5098239;28;20509;-56
2023/11/13 05:46:24;;;;;;;0.98;0.30;;;10.70;99.90;;;;;;5098152;28;20440;-56
2023/11/13 05:48:51;;;;;;;2.30;0.40;;;10.70;99.90;;;;;;5097064;28;20865;-54
2023/11/13 05:51:20;;;;;;;1.40;0.40;;;10.70;99.90;;;;;;5097212;28;20410;-54
2023/11/13 05:53:47;;;;;;;2.00;0.40;;;10.80;99.90;;;;;;5097476;28;20483;-56
2023/11/13 05:56:16;;;;;;;1.70;0.40;;;10.80;99.90;;;;;;5097803;28;20874;-54
2023/11/13 05:58:43;;;;;;;1.88;0.38;;;10.80;99.90;;;;;;5097070;28;20778;-49
2023/11/13 06:01:10;;;;;;;3.22;0.40;;;10.80;99.90;;;;;;5097734;28;20468;-53
2023/11/13 06:03:37;;;;;;;1.38;0.40;;;10.80;99.90;;;;;;5096437;28;20449;-50
2023/11/13 06:06:06;;;;;;;2.20;0.40;;;10.80;99.90;;;;;;5096386;28;20953;-52
2023/11/13 06:08:34;;;;;;;1.80;0.40;;;10.80;99.90;;;;;;5097382;28;20892;-52
2023/11/13 06:11:02;;;;;;;2.40;0.50;;;10.90;99.90;;;;;;5095376;28;20422;-54
2023/11/13 06:13:30;;;;;;;2.47;0.50;;;10.80;99.90;;;;;;5092164;28;20448;-53
2023/11/13 06:15:57;;;;;;;2.30;0.40;;;10.80;99.90;;;;;;5091060;28;20410;-51
2023/11/13 06:18:24;;;;;;;1.47;0.40;;;10.80;99.90;;;;;;5092576;28;20417;-50
2023/11/13 06:20:51;;;;;;;1.85;0.40;;;10.80;99.90;;;;;;5093244;28;20430;-54
2023/11/13 06:23:18;;;;;;;1.65;0.40;;;10.80;99.90;;;;;;5094025;28;20413;-51
2023/11/13 06:25:47;;;;;;;3.40;0.60;;;10.90;99.90;;;;;;5096266;28;20425;-51
2023/11/13 06:28:14;;;;;;;1.73;0.50;;;10.90;99.90;;;;;;5095692;28;20418;-49
2023/11/13 06:30:44;;;;;;;2.20;0.50;;;10.90;99.90;;;;;;5096002;28;20903;-54
2023/11/13 06:33:11;;;;;;;3.83;0.40;;;10.90;99.90;;;;;;5095649;28;20516;-50
2023/11/13 06:35:38;;;;;;;2.40;0.50;;;10.90;99.90;;;;;;5096116;28;20425;-54
2023/11/13 06:38:07;;;;;;;2.40;0.50;;;10.90;99.90;;;;;;5095852;28;20433;-51
2023/11/13 06:40:34;;;;;;;1.50;0.40;;;10.90;99.90;;;;;;5095364;28;20448;-55
2023/11/13 06:43:03;;;;;;;1.52;0.50;;;10.90;99.90;;;;;;5095512;28;20918;-56
2023/11/13 06:45:29;;;;;;;2.20;0.50;;;11.00;99.90;;;;;;5095112;28;20717;-54
2023/11/13 06:47:56;;;;;;;2.60;0.40;;;11.00;99.90;;;;;;5094329;28;20523;-52
2023/11/13 06:50:23;;;;;;;3.40;0.50;;;11.00;99.90;;;;;;5093456;28;20877;-52
2023/11/13 06:52:51;;;;;;;1.80;0.50;;;11.00;99.90;;;;;;5094392;28;20479;-55
2023/11/13 06:55:19;;;;;;;1.20;0.50;;;11.00;99.90;;;;;;5092818;28;20841;-54
2023/11/13 06:57:46;;;;;;;2.35;0.40;;;10.90;99.90;;;;;;5092682;28;20413;-53
2023/11/13 07:00:16;;;;;;;2.40;0.50;;;10.90;99.90;;;;;;5093210;28;20763;-53
2023/11/13 07:02:47;;;;;;;2.03;0.50;;;11.00;99.90;;;;;;5092960;28;20429;-50
2023/11/13 07:05:15;;;;;;;2.50;0.50;;;11.10;99.90;;;;;;5092546;28;20421;-53
2023/11/13 07:07:42;;;;;;;1.70;0.60;;;11.20;99.90;;;;;;5094204;28;20430;-51
2023/11/13 07:10:12;;;;;;;3.70;0.60;;;11.20;99.90;;;;;;5093246;28;20477;-55
2023/11/13 07:12:39;;;;;;;1.80;0.60;;;11.30;99.90;;;;;;5093597;28;20912;-50
2023/11/13 07:15:07;;;;;;;2.40;0.60;;;11.20;99.90;;;;;;5094193;28;21125;-55
2023/11/13 07:17:36;;;;;;;3.87;0.60;;;11.20;99.90;;;;;;5094443;28;20440;-51
2023/11/13 07:20:05;;;;;;;2.90;0.60;;;11.20;99.90;;;;;;5095694;28;20475;-50
2023/11/13 07:22:32;;;;;;;1.58;0.60;;;11.20;99.90;;;;;;5093642;28;20417;-55
2023/11/13 07:24:59;;;;;;;1.98;0.52;;;11.20;99.90;;;;;;5090582;28;20767;-51
2023/11/13 07:27:26;;;;;;;1.40;0.50;;;11.10;99.90;;;;;;5090826;28;20430;-54
2023/11/13 07:29:54;;;;;;;2.50;0.60;;;11.20;99.90;;;;;;5089311;28;20465;-54
2023/11/13 07:32:24;;;;;;;3.83;0.50;;;11.20;99.90;;;;;;5090772;28;21091;-56
2023/11/13 07:34:53;;;;;;;1.45;0.70;;;11.20;99.90;;;;;;5092299;28;20430;-53
2023/11/13 07:37:20;;;;;;;1.83;0.60;;;11.10;99.90;;;;;;5091371;28;20422;-54
2023/11/13 07:39:50;;;;;;;1.67;0.70;;;11.00;99.90;;;;;;5080364;28;20972;-52
2023/11/13 07:42:17;;;;;;;2.17;0.80;;;11.00;99.90;;;;;;5090375;28;20478;-54
2023/11/13 07:44:49;;;;;;;2.67;0.70;;;10.90;99.90;;;;;;5092793;28;20491;-56
2023/11/13 07:47:16;;;;;;;1.50;0.60;;;10.90;99.90;;;;;;5071143;28;20814;-56
2023/11/13 07:49:44;;;;;;;2.10;0.60;;;10.90;99.90;;;;;;5078769;28;20433;-52
2023/11/13 07:52:13;;;;;;;1.92;0.50;;;10.90;99.90;;;;;;5093579;28;20907;-52
2023/11/13 07:54:41;;;;;;;3.20;0.53;;;10.90;99.90;;;;;;5091364;28;20414;-56
2023/11/13 07:57:09;;;;;;;1.77;0.60;;;10.90;99.90;;;;;;5092342;28;20509;-54
2023/11/13 07:59:37;;;;;;;2.83;0.60;;;10.80;99.90;;;;;;5092875;28;20476;-54
2023/11/13 08:02:04;;;;;;;3.43;0.60;;;10.70;99.90;;;;;;5090032;28;20425;-55
2023/11/13 08:04:32;;;;;;;3.10;0.50;;;10.70;99.90;;;;;;5097761;28;20522;-54
2023/11/13 08:06:59;;;;;;;2.30;0.60;;;10.70;99.90;;;;;;5089739;28;20430;-55
2023/11/13 08:09:28;;;;;;;1.63;0.50;;;10.60;99.90;;;;;;5087330;28;20441;-56
2023/11/13 08:11:55;;;;;;;1.90;0.50;;;10.60;99.90;;;;;;5083425;28;21030;-55
2023/11/13 08:14:23;;;;;;;2.97;0.50;;;10.60;99.90;;;;;;5091944;28;20471;-57
2023/11/13 08:16:50;;;;;;;1.70;0.40;;;10.50;99.90;;;;;;5094045;28;20421;-54
2023/11/13 08:19:18;;;;;;;1.40;0.40;;;10.50;99.90;;;;;;5092075;28;20504;-54
2023/11/13 08:21:46;;;;;;;2.00;0.60;;;10.40;99.90;;;;;;5090616;28;20542;-58
2023/11/13 08:24:13;;;;;;;1.50;0.50;;;10.40;99.90;;;;;;5090850;28;20438;-57
2023/11/13 08:26:42;;;;;;;1.20;0.40;;;10.40;99.90;;;;;;5090188;28;20438;-58
2023/11/13 08:29:09;;;;;;;3.28;0.50;;;10.30;99.90;;;;;;5090164;28;20434;-58
2023/11/13 08:31:36;;;;;;;2.03;0.50;;;10.30;99.90;;;;;;5090449;28;20438;-53
2023/11/13 08:34:04;;;;;;;1.70;0.40;;;10.30;99.90;;;;;;5091357;28;20442;-57
2023/11/13 08:36:32;;;;;;;1.30;0.40;;;10.40;99.90;;;;;;5092822;28;20434;-56
2023/11/13 08:39:00;;;;;;;1.60;0.40;;;10.40;99.90;;;;;;5091103;28;20536;-54
2023/11/13 08:41:28;;;;;;;2.83;0.40;;;10.50;99.90;;;;;;5090591;28;20520;-57
2023/11/13 08:43:56;;;;;;;1.55;0.43;;;10.50;99.90;;;;;;5088711;28;20444;-59
2023/11/13 08:46:24;;;;;;;1.20;0.60;;;10.50;99.90;;;;;;5081336;28;20845;-57
2023/11/13 08:48:51;;;;;;;3.40;1.38;;;10.60;99.90;;;;;;5092170;28;20437;-57
2023/11/13 08:51:18;;;;;;;1.30;0.40;;;10.60;99.90;;;;;;5090514;28;20469;-58
2023/11/13 08:53:46;;;;;;;1.90;0.40;;;10.70;99.90;;;;;;5090835;28;20437;-53
2023/11/13 08:56:15;;;;;;;1.35;0.40;;;10.70;99.90;;;;;;5090356;28;20441;-56
2023/11/13 08:58:42;;;;;;;1.90;0.47;;;10.70;99.90;;;;;;5091266;28;20598;-55
2023/11/13 09:01:11;;;;;;;2.30;0.50;;;10.60;99.90;;;;;;5091683;28;20483;-56
2023/11/13 09:03:39;;;;;;;1.40;0.50;;;10.40;99.90;;;;;;5093178;28;20453;-57
2023/11/13 09:06:09;;;;;;;1.40;0.50;;;10.40;99.90;;;;;;5094893;28;20560;-58
2023/11/13 09:08:36;;;;;;;0.60;0.30;;;10.40;99.90;;;;;;5093274;28;20441;-56
2023/11/13 09:11:05;;;;;;;1.00;0.40;;;10.40;99.90;;;;;;5091867;28;20445;-52
2023/11/13 09:13:32;;;;;;;1.60;0.30;;;10.40;99.90;;;;;;5094175;28;20437;-52
2023/11/13 09:15:59;;;;;;;1.40;0.40;;;10.40;99.90;;;;;;5095447;28;20445;-51
2023/11/13 09:18:27;;;;;;;1.88;0.40;;;10.40;99.90;;;;;;5091738;28;20425;-48
2023/11/13 09:20:55;;;;;;;0.70;0.30;;;10.40;99.90;;;;;;5092673;28;20603;-51
2023/11/13 09:23:22;;;;;;;0.60;0.30;;;10.40;99.90;;;;;;5096252;28;20524;-48
2023/11/13 09:25:49;;;;;;;1.80;0.40;;;10.40;99.90;;;;;;5094617;28;20795;-48
2023/11/13 09:28:17;;;;;;;1.00;0.40;;;10.40;99.90;;;;;;5094949;28;20540;-52
2023/11/13 09:30:44;;;;;;;1.40;0.32;;;10.40;99.90;;;;;;5094839;28;20418;-49
2023/11/13 09:33:11;;;;;;;1.00;0.40;;;10.40;99.90;;;;;;5093817;28;20493;-49
2023/11/13 09:35:39;;;;;;;1.73;0.40;;;10.50;99.90;;;;;;5093244;28;20528;-45
2023/11/13 09:38:09;;;;;;;0.60;0.30;;;10.50;99.90;;;;;;5093739;28;20929;-52
2023/11/13 09:40:36;;;;;;;1.60;0.40;;;10.60;99.90;;;;;;5093968;28;20484;-50
2023/11/13 09:43:07;;;;;;;1.90;0.40;;;10.60;99.90;;;;;;5094765;28;20410;-48
2023/11/13 09:45:37;;;;;;;1.50;0.30;;;10.70;99.90;;;;;;5094967;28;20866;-49
2023/11/13 09:48:07;;;;;;;0.50;0.30;;;10.80;99.90;;;;;;5086314;28;20706;-49
2023/11/13 09:50:35;;;;;;;0.80;0.30;;;10.80;99.90;;;;;;5095049;28;20429;-51
2023/11/13 09:53:09;;;;;;;1.20;0.60;;;10.90;99.90;;;;;;5093380;28;20472;-52
2023/11/13 09:55:41;;;;;;;1.30;0.40;;;10.90;99.90;;;;;;5093373;28;20834;-52
2023/11/13 09:58:09;;;;;;;1.30;0.40;;;10.90;99.90;;;;;;5094893;28;20727;-51
2023/11/13 10:00:38;;;;;;;0.70;0.40;;;11.00;99.90;;;;;;5093860;28;20521;-49
2023/11/13 10:03:05;;;;;;;0.70;0.30;;;11.10;99.90;;;;;;5093781;28;20796;-50
2023/11/13 10:05:32;;;;;;;0.90;0.40;;;11.20;99.90;;;;;;5074231;28;20423;-53
2023/11/13 10:07:59;;;;;;;0.80;0.40;;;11.30;99.90;;;;;;5072985;28;20431;-51
2023/11/13 10:10:30;;;;;;;0.80;0.40;;;11.40;99.90;;;;;;5072323;28;20423;-51
2023/11/13 10:13:00;;;;;;;0.70;0.30;;;11.50;99.90;;;;;;5073487;28;20427;-50
2023/11/13 10:15:29;;;;;;;37.90;20.95;;;11.50;99.90;;;;;;5087816;28;20434;-61
2023/11/13 10:17:57;;;;;;;1.10;0.40;;;11.60;99.90;;;;;;5095711;28;20418;-59
2023/11/13 10:20:25;;;;;;;1.20;0.40;;;11.70;99.90;;;;;;5088413;28;20442;-58
2023/11/13 10:23:00;;;;;;;1.20;0.40;;;11.80;99.90;;;;;;5089059;28;20444;-59
2023/11/13 10:25:40;;;;;;;1.90;0.30;;;11.90;99.90;;;;;;5093775;28;20461;-59
2023/11/13 10:28:08;;;;;;;1.80;0.30;;;12.00;99.90;;;;;;5089612;28;20429;-58
2023/11/13 10:30:35;;;;;;;0.63;0.30;;;12.10;99.90;;;;;;5089910;28;20437;-58
2023/11/13 10:33:15;;;;;;;1.10;0.30;;;12.20;99.90;;;;;;5092193;28;20443;-59
2023/11/13 10:35:45;;;;;;;0.70;0.30;;;12.20;99.90;;;;;;5092001;28;20533;-58
2023/11/13 10:38:14;;;;;;;0.50;0.30;;;12.20;99.90;;;;;;5089428;28;20434;-59
2023/11/13 10:40:44;;;;;;;0.70;0.30;;;12.30;99.90;;;;;;5080653;28;20448;-59
2023/11/13 10:43:11;;;;;;;0.88;0.30;;;12.40;99.90;;;;;;5091791;28;20440;-59
2023/11/13 10:45:46;;;;;;;1.00;0.40;;;12.40;99.90;;;;;;5089779;28;20511;-59
2023/11/13 10:48:14;;;;;;;0.88;0.40;;;12.50;99.90;;;;;;5093760;28;20434;-60
2023/11/13 10:50:41;;;;;;;0.85;0.30;;;12.60;99.90;;;;;;5089359;28;20437;-59
2023/11/13 10:53:12;;;;;;;0.80;0.30;;;12.60;99.90;;;;;;5090188;28;20520;-62
2023/11/13 10:55:41;;;;;;;0.70;0.40;;;12.70;99.90;;;;;;5093202;28;20879;-59
2023/11/13 10:58:10;;;;;;;0.60;0.30;;;12.80;99.90;;;;;;5086783;28;20493;-59
2023/11/13 11:00:37;;;;;;;1.58;0.40;;;12.80;99.90;;;;;;5085822;28;20752;-59
2023/11/13 11:03:10;;;;;;;1.60;0.30;;;12.90;99.90;;;;;;5087810;28;20867;-60
2023/11/13 11:05:41;;;;;;;1.02;0.30;;;13.00;99.90;;;;;;5091340;28;20580;-61
2023/11/13 11:08:08;;;;;;;1.90;0.90;;;13.00;99.90;;;;;;5100150;28;20451;-59
2023/11/13 11:10:36;;;;;;;0.85;0.30;;;13.00;99.90;;;;;;5086448;28;20673;-60
2023/11/13 11:13:09;;;;;;;0.60;0.30;;;13.10;99.90;;;;;;5089523;28;20437;-60
2023/11/13 11:16:13;;;;;;;1.45;0.30;;;13.10;99.90;;;;;;5084653;28;20946;-59
2023/11/13 11:18:46;;;;;;;0.60;0.30;;;13.10;99.90;;;;;;5086150;28;20860;-60
2023/11/13 11:21:36;;;;;;;2.97;0.30;;;13.20;99.90;;;;;;5092698;28;20524;-57
2023/11/13 11:24:11;;;;;;;0.70;0.30;;;13.20;99.90;;;;;;5089370;28;20459;-58
2023/11/13 11:26:54;;;;;;;0.50;0.30;;;13.20;99.90;;;;;;5090284;28;20441;-58
2023/11/13 11:29:38;;;;;;;1.50;0.30;;;13.20;99.90;;;;;;5090190;28;20496;-59
2023/11/13 11:32:19;;;;;;;0.90;0.30;;;13.20;99.90;;;;;;5091818;28;20425;-60
2023/11/13 11:34:51;;;;;;;0.60;0.30;;;13.20;99.90;;;;;;5091568;28;20791;-60
2023/11/13 11:37:19;;;;;;;1.38;0.40;;;13.30;99.90;;;;;;5088834;28;20910;-60
2023/11/13 11:39:47;;;;;;;0.70;0.30;;;13.40;99.90;;;;;;5082195;28;20549;-61
2023/11/13 11:42:19;;;;;;;1.17;0.40;;;13.40;99.90;;;;;;5087483;28;20430;-61
2023/11/13 11:44:57;;;;;;;1.02;0.38;;;13.50;99.90;;;;;;5092212;28;20790;-60
2023/11/13 11:47:27;;;;;;;1.98;0.30;;;13.50;99.90;;;;;;5089224;28;20802;-60
2023/11/13 11:49:55;;;;;;;2.55;0.30;;;13.50;99.90;;;;;;5093106;28;20437;-61
2023/11/13 11:52:40;;;;;;;0.57;0.30;;;13.60;99.90;;;;;;5092795;28;20821;-61
2023/11/13 11:55:12;;;;;;;0.93;0.40;;;13.60;99.90;;;;;;5093545;28;20418;-60
2023/11/13 11:57:43;;;;;;;1.30;0.30;;;13.60;99.90;;;;;;5090917;28;20467;-63
2023/11/13 12:00:15;;;;;;;1.95;0.60;;;13.50;99.90;;;;;;5090076;28;20491;-63
2023/11/13 12:02:44;;;;;;;0.80;0.40;;;13.60;99.90;;;;;;5089995;28;20491;-63
2023/11/13 12:05:11;;;;;;;0.50;0.30;;;13.60;99.90;;;;;;5091148;28;20430;-63
2023/11/13 12:07:38;;;;;;;0.90;0.30;;;13.50;99.90;;;;;;5093485;28;20705;-62
2023/11/13 12:10:08;;;;;;;0.70;0.40;;;13.50;99.90;;;;;;5099586;28;20431;-62
2023/11/13 12:12:36;;;;;;;2.50;0.30;;;13.50;99.90;;;;;;5107656;28;20932;-62
2023/11/13 12:15:07;;;;;;;1.40;0.40;;;13.50;99.90;;;;;;5091874;28;20430;-62
2023/11/13 12:17:34;;;;;;;2.55;0.50;;;13.60;99.90;;;;;;5091399;28;20438;-63
2023/11/13 12:20:06;;;;;;;0.70;0.30;;;13.60;99.90;;;;;;5084951;28;20490;-63
2023/11/13 12:22:34;;;;;;;0.93;0.40;;;13.70;99.90;;;;;;5091350;28;20468;-63
2023/11/13 12:25:03;;;;;;;1.50;0.40;;;13.70;99.90;;;;;;5091869;28;20422;-63
2023/11/13 12:27:31;;;;;;;0.57;0.40;;;13.80;99.90;;;;;;5091591;28;20994;-62
2023/11/13 12:30:04;;;;;;;1.50;0.40;;;13.80;99.90;;;;;;5092402;28;20425;-61
2023/11/13 12:32:33;;;;;;;0.63;0.30;;;13.80;99.90;;;;;;5089734;28;20467;-61
2023/11/13 12:35:00;;;;;;;8.85;3.80;;;13.80;99.90;;;;;;5092214;28;20490;-62
2023/11/13 12:37:29;;;;;;;1.00;0.40;;;13.90;99.90;;;;;;5091416;28;20480;-62
2023/11/13 12:39:58;;;;;;;0.90;0.30;;;13.90;99.90;;;;;;5091502;28;20835;-61
2023/11/13 12:42:28;;;;;;;0.70;0.30;;;14.00;99.90;;;;;;5089447;28;21595;-61
2023/11/13 12:44:55;;;;;;;0.80;0.40;;;14.00;99.90;;;;;;5092511;28;20479;-62
2023/11/13 12:47:24;;;;;;;2.10;0.30;;;14.10;99.90;;;;;;5091923;28;20424;-61
2023/11/13 12:49:51;;;;;;;1.10;0.30;;;14.00;99.90;;;;;;5090349;28;20434;-61
2023/11/13 12:52:20;;;;;;;1.60;0.30;;;14.00;99.90;;;;;;5085315;28;20550;-61
2023/11/13 12:54:55;;;;;;;0.80;0.30;;;14.00;99.90;;;;;;5082811;28;20418;-62
2023/11/13 12:57:22;;;;;;;0.70;0.40;;;14.10;99.90;;;;;;5090521;28;20489;-60